Pagina principale
METAR-TAF:

METAR-TAF

Aeroporti :

Aeroporto di Roma-Ciampino

Roma Ciampino, Italia

latitudine: 41-47N, longitudine: 012-35E, altezza: 129 m

Osservazione

Il bollettino è stato emesso 10 minuti fa, alle 13:20 UTC
Vento 4 kt da nord/nord-est, variando fra nord e est/nord-est
Temperature 9°C
Umidità 34%
Pressione 1029 hPa
Visibilità 10 km o più
nessuna nube inferiore a 1500 m e nessun cumulonembo

METAR: LIRA 091320Z 03004KT 360V060 CAVOK 09/M06 Q1029

Ora: 14:30 (13:30 UTC)

Previsione

Il bollettino è stato emesso 2 ore e 30 minuti fa, alle 11:00 UTC
Previsione valida dal 09 alle 12 UTC al 10 alle 12 UTC
Vento 8 kt da nord-est
Visibilità 10 km o più
nessuna nube inferiore a 1500 m e nessun cumulonembo

TAF: LIRA 091100Z 0912/1012 04008KT CAVOK

Osservazioni e previsioni meteorologiche di più di 4000 aeroporti (messaggi METAR e TAF).

Le stazioni disponibili sono rappresentate dai dischi gialli e rossi sulla carta.

Puntare il mouse per vedere il nome della stazione.

Clicca sopra per visualizzare le osservazioni e previsioni meteorologiche.

Per cambiare la mappa : fare clic sui pulsanti verdi con una croce nera per ingrandire, il pulsante verde con un trattino per diminuire, o sulla freccia verde per le mappe adiacenti.


METAR-TAF: